sensor_id;sensor_type;location;lat;lon;timestamp;temperature;humidity
28761;DHT22;15917;50.014;8.352;2022-07-19T00:01:29;23.40;71.80
28761;DHT22;15917;50.014;8.352;2022-07-19T00:03:56;23.40;72.20
28761;DHT22;15917;50.014;8.352;2022-07-19T00:06:22;23.40;72.70
28761;DHT22;15917;50.014;8.352;2022-07-19T00:08:49;23.30;72.70
28761;DHT22;15917;50.014;8.352;2022-07-19T00:11:14;23.30;73.00
28761;DHT22;15917;50.014;8.352;2022-07-19T00:13:40;23.30;73.20
28761;DHT22;15917;50.014;8.352;2022-07-19T00:16:06;23.10;73.20
28761;DHT22;15917;50.014;8.352;2022-07-19T00:18:31;23.10;73.50
28761;DHT22;15917;50.014;8.352;2022-07-19T00:20:58;23.10;73.40
28761;DHT22;15917;50.014;8.352;2022-07-19T00:23:23;23.10;72.80
28761;DHT22;15917;50.014;8.352;2022-07-19T00:25:49;23.10;72.60
28761;DHT22;15917;50.014;8.352;2022-07-19T00:28:15;23.10;72.50
28761;DHT22;15917;50.014;8.352;2022-07-19T00:30:40;23.10;72.50
28761;DHT22;15917;50.014;8.352;2022-07-19T00:33:06;23.00;72.80
28761;DHT22;15917;50.014;8.352;2022-07-19T00:35:36;23.00;72.20
28761;DHT22;15917;50.014;8.352;2022-07-19T00:38:06;23.00;72.60
28761;DHT22;15917;50.014;8.352;2022-07-19T00:40:32;22.90;72.70
28761;DHT22;15917;50.014;8.352;2022-07-19T00:42:58;22.90;73.10
28761;DHT22;15917;50.014;8.352;2022-07-19T00:45:23;22.90;73.20
28761;DHT22;15917;50.014;8.352;2022-07-19T00:47:49;22.90;73.20
28761;DHT22;15917;50.014;8.352;2022-07-19T00:50:15;22.90;73.20
28761;DHT22;15917;50.014;8.352;2022-07-19T00:52:43;22.90;73.70
28761;DHT22;15917;50.014;8.352;2022-07-19T00:55:11;22.80;73.00
28761;DHT22;15917;50.014;8.352;2022-07-19T00:57:37;22.90;73.20
28761;DHT22;15917;50.014;8.352;2022-07-19T01:00:05;22.90;73.30
28761;DHT22;15917;50.014;8.352;2022-07-19T01:02:32;22.90;73.00
28761;DHT22;15917;50.014;8.352;2022-07-19T01:04:58;22.90;73.10
28761;DHT22;15917;50.014;8.352;2022-07-19T01:07:26;22.90;73.10
28761;DHT22;15917;50.014;8.352;2022-07-19T01:09:51;22.80;73.30
28761;DHT22;15917;50.014;8.352;2022-07-19T01:12:20;22.70;73.40
28761;DHT22;15917;50.014;8.352;2022-07-19T01:14:49;22.70;73.80
28761;DHT22;15917;50.014;8.352;2022-07-19T01:17:15;22.70;73.70
28761;DHT22;15917;50.014;8.352;2022-07-19T01:19:43;22.70;73.40
28761;DHT22;15917;50.014;8.352;2022-07-19T01:22:10;22.70;73.90
28761;DHT22;15917;50.014;8.352;2022-07-19T01:24:35;22.60;73.80
28761;DHT22;15917;50.014;8.352;2022-07-19T01:27:01;22.60;74.00
28761;DHT22;15917;50.014;8.352;2022-07-19T01:29:27;22.60;73.80
28761;DHT22;15917;50.014;8.352;2022-07-19T01:31:52;22.60;74.00
28761;DHT22;15917;50.014;8.352;2022-07-19T01:34:18;22.60;74.00
28761;DHT22;15917;50.014;8.352;2022-07-19T01:36:44;22.60;74.10
28761;DHT22;15917;50.014;8.352;2022-07-19T01:39:09;22.60;73.70
28761;DHT22;15917;50.014;8.352;2022-07-19T01:41:35;22.40;73.80
28761;DHT22;15917;50.014;8.352;2022-07-19T01:44:00;22.50;73.90
28761;DHT22;15917;50.014;8.352;2022-07-19T01:46:26;22.50;74.00
28761;DHT22;15917;50.014;8.352;2022-07-19T01:48:52;22.50;74.20
28761;DHT22;15917;50.014;8.352;2022-07-19T01:51:17;22.40;74.40
28761;DHT22;15917;50.014;8.352;2022-07-19T01:53:43;22.50;74.50
28761;DHT22;15917;50.014;8.352;2022-07-19T01:56:09;22.30;74.70
28761;DHT22;15917;50.014;8.352;2022-07-19T01:58:34;22.40;73.80
28761;DHT22;15917;50.014;8.352;2022-07-19T02:01:01;22.40;74.50
28761;DHT22;15917;50.014;8.352;2022-07-19T02:03:26;22.30;75.10
28761;DHT22;15917;50.014;8.352;2022-07-19T02:05:52;22.40;74.90
28761;DHT22;15917;50.014;8.352;2022-07-19T02:08:18;22.40;75.30
28761;DHT22;15917;50.014;8.352;2022-07-19T02:10:43;22.30;75.20
28761;DHT22;15917;50.014;8.352;2022-07-19T02:13:09;22.30;75.20
28761;DHT22;15917;50.014;8.352;2022-07-19T02:15:34;22.30;75.70
28761;DHT22;15917;50.014;8.352;2022-07-19T02:18:00;22.30;75.80
28761;DHT22;15917;50.014;8.352;2022-07-19T02:20:26;22.30;75.80
28761;DHT22;15917;50.014;8.352;2022-07-19T02:22:52;22.30;76.10
28761;DHT22;15917;50.014;8.352;2022-07-19T02:25:18;22.20;76.30
28761;DHT22;15917;50.014;8.352;2022-07-19T02:27:44;22.20;76.30
28761;DHT22;15917;50.014;8.352;2022-07-19T02:30:11;22.10;76.80
28761;DHT22;15917;50.014;8.352;2022-07-19T02:32:37;22.10;77.20
28761;DHT22;15917;50.014;8.352;2022-07-19T02:35:06;22.00;77.30
28761;DHT22;15917;50.014;8.352;2022-07-19T02:37:32;21.90;77.70
28761;DHT22;15917;50.014;8.352;2022-07-19T02:39:58;21.90;77.90
28761;DHT22;15917;50.014;8.352;2022-07-19T02:42:24;21.80;77.70
28761;DHT22;15917;50.014;8.352;2022-07-19T02:44:49;21.70;78.10
28761;DHT22;15917;50.014;8.352;2022-07-19T02:47:15;21.70;78.60
28761;DHT22;15917;50.014;8.352;2022-07-19T02:49:40;21.70;78.80
28761;DHT22;15917;50.014;8.352;2022-07-19T02:52:06;21.60;79.20
28761;DHT22;15917;50.014;8.352;2022-07-19T02:54:32;21.50;79.30
28761;DHT22;15917;50.014;8.352;2022-07-19T02:56:57;21.50;79.70
28761;DHT22;15917;50.014;8.352;2022-07-19T02:59:23;21.40;79.80
28761;DHT22;15917;50.014;8.352;2022-07-19T03:01:49;21.40;80.50
28761;DHT22;15917;50.014;8.352;2022-07-19T03:04:14;21.40;80.60
28761;DHT22;15917;50.014;8.352;2022-07-19T03:06:40;21.40;81.00
28761;DHT22;15917;50.014;8.352;2022-07-19T03:09:05;21.40;81.00
28761;DHT22;15917;50.014;8.352;2022-07-19T03:11:31;21.30;81.20
28761;DHT22;15917;50.014;8.352;2022-07-19T03:13:57;21.30;81.50
28761;DHT22;15917;50.014;8.352;2022-07-19T03:16:22;21.30;81.90
28761;DHT22;15917;50.014;8.352;2022-07-19T03:18:48;21.40;82.40
28761;DHT22;15917;50.014;8.352;2022-07-19T03:21:13;21.20;83.30
28761;DHT22;15917;50.014;8.352;2022-07-19T03:23:40;21.30;83.90
28761;DHT22;15917;50.014;8.352;2022-07-19T03:26:06;21.20;84.40
28761;DHT22;15917;50.014;8.352;2022-07-19T03:28:33;21.20;85.50
28761;DHT22;15917;50.014;8.352;2022-07-19T03:30:58;21.10;84.70
28761;DHT22;15917;50.014;8.352;2022-07-19T03:33:24;21.10;84.90
28761;DHT22;15917;50.014;8.352;2022-07-19T03:35:49;21.10;84.70
28761;DHT22;15917;50.014;8.352;2022-07-19T03:38:15;21.20;85.00
28761;DHT22;15917;50.014;8.352;2022-07-19T03:40:42;21.20;84.70
28761;DHT22;15917;50.014;8.352;2022-07-19T03:43:08;21.20;84.70
28761;DHT22;15917;50.014;8.352;2022-07-19T03:45:34;21.10;84.30
28761;DHT22;15917;50.014;8.352;2022-07-19T03:48:00;21.10;84.00
28761;DHT22;15917;50.014;8.352;2022-07-19T03:50:26;21.20;84.40
28761;DHT22;15917;50.014;8.352;2022-07-19T03:52:52;21.10;83.90
28761;DHT22;15917;50.014;8.352;2022-07-19T03:55:18;21.10;83.60
28761;DHT22;15917;50.014;8.352;2022-07-19T03:57:43;21.00;83.50
28761;DHT22;15917;50.014;8.352;2022-07-19T04:00:09;21.20;83.50
28761;DHT22;15917;50.014;8.352;2022-07-19T04:02:38;21.20;83.40
28761;DHT22;15917;50.014;8.352;2022-07-19T04:05:04;21.20;83.60
28761;DHT22;15917;50.014;8.352;2022-07-19T04:07:29;21.20;83.80
28761;DHT22;15917;50.014;8.352;2022-07-19T04:09:55;21.20;83.20
28761;DHT22;15917;50.014;8.352;2022-07-19T04:12:21;21.20;82.90
28761;DHT22;15917;50.014;8.352;2022-07-19T04:14:46;21.10;83.20
28761;DHT22;15917;50.014;8.352;2022-07-19T04:17:12;21.10;83.90
28761;DHT22;15917;50.014;8.352;2022-07-19T04:19:38;21.20;84.20
28761;DHT22;15917;50.014;8.352;2022-07-19T04:22:04;21.30;84.20
28761;DHT22;15917;50.014;8.352;2022-07-19T04:24:29;21.40;83.80
28761;DHT22;15917;50.014;8.352;2022-07-19T04:26:55;21.40;83.60
28761;DHT22;15917;50.014;8.352;2022-07-19T04:29:20;21.40;82.90
28761;DHT22;15917;50.014;8.352;2022-07-19T04:31:46;21.50;83.00
28761;DHT22;15917;50.014;8.352;2022-07-19T04:34:12;21.50;83.20
28761;DHT22;15917;50.014;8.352;2022-07-19T04:36:37;21.60;83.70
28761;DHT22;15917;50.014;8.352;2022-07-19T04:39:03;21.60;84.30
28761;DHT22;15917;50.014;8.352;2022-07-19T04:41:29;21.70;84.10
28761;DHT22;15917;50.014;8.352;2022-07-19T04:43:54;21.70;84.50
28761;DHT22;15917;50.014;8.352;2022-07-19T04:46:20;21.60;84.40
28761;DHT22;15917;50.014;8.352;2022-07-19T04:48:46;21.70;84.80
28761;DHT22;15917;50.014;8.352;2022-07-19T04:51:11;21.60;83.90
28761;DHT22;15917;50.014;8.352;2022-07-19T04:53:37;21.60;83.50
28761;DHT22;15917;50.014;8.352;2022-07-19T04:56:02;21.60;82.90
28761;DHT22;15917;50.014;8.352;2022-07-19T04:58:28;21.60;83.10
28761;DHT22;15917;50.014;8.352;2022-07-19T05:00:54;21.60;83.70
28761;DHT22;15917;50.014;8.352;2022-07-19T05:03:19;21.60;83.60
28761;DHT22;15917;50.014;8.352;2022-07-19T05:05:45;21.60;83.50
28761;DHT22;15917;50.014;8.352;2022-07-19T05:08:10;21.70;82.60
28761;DHT22;15917;50.014;8.352;2022-07-19T05:10:36;21.60;83.40
28761;DHT22;15917;50.014;8.352;2022-07-19T05:13:02;21.70;83.20
28761;DHT22;15917;50.014;8.352;2022-07-19T05:15:27;21.70;82.90
28761;DHT22;15917;50.014;8.352;2022-07-19T05:17:53;21.70;83.20
28761;DHT22;15917;50.014;8.352;2022-07-19T05:20:19;21.80;83.60
28761;DHT22;15917;50.014;8.352;2022-07-19T05:22:44;21.80;84.20
28761;DHT22;15917;50.014;8.352;2022-07-19T05:25:10;21.90;84.10
28761;DHT22;15917;50.014;8.352;2022-07-19T05:27:36;21.90;83.60
28761;DHT22;15917;50.014;8.352;2022-07-19T05:30:03;21.90;84.00
28761;DHT22;15917;50.014;8.352;2022-07-19T05:32:29;21.90;84.00
28761;DHT22;15917;50.014;8.352;2022-07-19T05:34:55;22.00;84.60
28761;DHT22;15917;50.014;8.352;2022-07-19T05:37:21;22.10;84.70
28761;DHT22;15917;50.014;8.352;2022-07-19T05:39:46;22.20;84.30
28761;DHT22;15917;50.014;8.352;2022-07-19T05:42:12;22.20;84.00
28761;DHT22;15917;50.014;8.352;2022-07-19T05:44:37;22.30;83.60
28761;DHT22;15917;50.014;8.352;2022-07-19T05:47:03;22.30;83.50
28761;DHT22;15917;50.014;8.352;2022-07-19T05:49:29;22.40;83.50
28761;DHT22;15917;50.014;8.352;2022-07-19T05:51:55;22.40;83.30
28761;DHT22;15917;50.014;8.352;2022-07-19T05:54:20;22.60;83.50
28761;DHT22;15917;50.014;8.352;2022-07-19T05:56:46;22.60;83.40
28761;DHT22;15917;50.014;8.352;2022-07-19T05:59:12;22.80;83.10
28761;DHT22;15917;50.014;8.352;2022-07-19T06:01:37;22.80;82.90
28761;DHT22;15917;50.014;8.352;2022-07-19T06:04:03;22.90;81.80
28761;DHT22;15917;50.014;8.352;2022-07-19T06:06:31;23.10;81.10
28761;DHT22;15917;50.014;8.352;2022-07-19T06:08:57;23.10;78.50
28761;DHT22;15917;50.014;8.352;2022-07-19T06:11:24;23.40;76.90
28761;DHT22;15917;50.014;8.352;2022-07-19T06:13:50;23.50;75.80
28761;DHT22;15917;50.014;8.352;2022-07-19T06:16:16;23.60;75.00
28761;DHT22;15917;50.014;8.352;2022-07-19T06:18:42;23.80;74.30
28761;DHT22;15917;50.014;8.352;2022-07-19T06:21:10;23.90;73.30
28761;DHT22;15917;50.014;8.352;2022-07-19T06:23:38;24.00;73.40
28761;DHT22;15917;50.014;8.352;2022-07-19T06:26:05;24.20;73.00
28761;DHT22;15917;50.014;8.352;2022-07-19T06:28:31;24.10;79.10
28761;DHT22;15917;50.014;8.352;2022-07-19T06:30:56;24.20;80.00
28761;DHT22;15917;50.014;8.352;2022-07-19T06:33:22;24.20;79.00
28761;DHT22;15917;50.014;8.352;2022-07-19T06:35:48;24.20;76.70
28761;DHT22;15917;50.014;8.352;2022-07-19T06:38:14;24.30;75.30
28761;DHT22;15917;50.014;8.352;2022-07-19T06:40:40;24.30;74.60
28761;DHT22;15917;50.014;8.352;2022-07-19T06:43:06;24.50;74.60
28761;DHT22;15917;50.014;8.352;2022-07-19T06:45:32;24.60;74.50
28761;DHT22;15917;50.014;8.352;2022-07-19T06:47:58;24.60;74.10
28761;DHT22;15917;50.014;8.352;2022-07-19T06:50:23;24.70;73.80
28761;DHT22;15917;50.014;8.352;2022-07-19T06:52:49;24.80;74.40
28761;DHT22;15917;50.014;8.352;2022-07-19T06:55:15;24.90;73.90
28761;DHT22;15917;50.014;8.352;2022-07-19T06:57:41;25.00;72.70
28761;DHT22;15917;50.014;8.352;2022-07-19T07:00:07;25.10;72.20
28761;DHT22;15917;50.014;8.352;2022-07-19T07:02:39;25.20;71.20
28761;DHT22;15917;50.014;8.352;2022-07-19T07:05:06;25.30;70.70
28761;DHT22;15917;50.014;8.352;2022-07-19T07:07:33;25.40;70.20
28761;DHT22;15917;50.014;8.352;2022-07-19T07:09:58;25.50;70.50
28761;DHT22;15917;50.014;8.352;2022-07-19T07:12:27;25.60;69.80
28761;DHT22;15917;50.014;8.352;2022-07-19T07:14:53;25.70;69.70
28761;DHT22;15917;50.014;8.352;2022-07-19T07:17:19;25.80;69.10
28761;DHT22;15917;50.014;8.352;2022-07-19T07:19:44;25.90;68.60
28761;DHT22;15917;50.014;8.352;2022-07-19T07:22:10;26.00;68.90
28761;DHT22;15917;50.014;8.352;2022-07-19T07:24:36;26.10;68.70
28761;DHT22;15917;50.014;8.352;2022-07-19T07:27:01;26.20;68.60
28761;DHT22;15917;50.014;8.352;2022-07-19T07:29:28;26.30;68.10
28761;DHT22;15917;50.014;8.352;2022-07-19T07:31:54;26.30;67.30
28761;DHT22;15917;50.014;8.352;2022-07-19T07:34:19;26.40;67.20
28761;DHT22;15917;50.014;8.352;2022-07-19T07:36:45;26.50;66.80
28761;DHT22;15917;50.014;8.352;2022-07-19T07:39:11;26.60;67.60
28761;DHT22;15917;50.014;8.352;2022-07-19T07:41:37;26.70;66.80
28761;DHT22;15917;50.014;8.352;2022-07-19T07:44:03;26.70;67.50
28761;DHT22;15917;50.014;8.352;2022-07-19T07:46:29;26.80;66.80
28761;DHT22;15917;50.014;8.352;2022-07-19T07:48:54;26.80;66.50
28761;DHT22;15917;50.014;8.352;2022-07-19T07:51:20;26.90;66.80
28761;DHT22;15917;50.014;8.352;2022-07-19T07:53:46;27.00;66.90
28761;DHT22;15917;50.014;8.352;2022-07-19T07:56:11;27.00;66.70
28761;DHT22;15917;50.014;8.352;2022-07-19T07:58:37;27.10;66.90
28761;DHT22;15917;50.014;8.352;2022-07-19T08:01:03;27.20;66.90
28761;DHT22;15917;50.014;8.352;2022-07-19T08:03:29;27.20;66.70
28761;DHT22;15917;50.014;8.352;2022-07-19T08:05:54;27.30;66.30
28761;DHT22;15917;50.014;8.352;2022-07-19T08:08:26;27.40;66.20
28761;DHT22;15917;50.014;8.352;2022-07-19T08:10:56;27.50;65.60
28761;DHT22;15917;50.014;8.352;2022-07-19T08:13:22;27.50;65.80
28761;DHT22;15917;50.014;8.352;2022-07-19T08:15:48;27.60;65.90
28761;DHT22;15917;50.014;8.352;2022-07-19T08:18:17;27.60;66.10
28761;DHT22;15917;50.014;8.352;2022-07-19T08:20:43;27.80;65.70
28761;DHT22;15917;50.014;8.352;2022-07-19T08:23:09;27.80;65.20
28761;DHT22;15917;50.014;8.352;2022-07-19T08:25:36;27.90;65.40
28761;DHT22;15917;50.014;8.352;2022-07-19T08:28:03;28.00;66.00
28761;DHT22;15917;50.014;8.352;2022-07-19T08:30:29;28.10;65.10
28761;DHT22;15917;50.014;8.352;2022-07-19T08:32:54;28.20;64.50
28761;DHT22;15917;50.014;8.352;2022-07-19T08:35:20;28.30;64.30
28761;DHT22;15917;50.014;8.352;2022-07-19T08:37:46;28.40;63.60
28761;DHT22;15917;50.014;8.352;2022-07-19T08:40:11;28.50;63.50
28761;DHT22;15917;50.014;8.352;2022-07-19T08:42:38;28.60;63.20
28761;DHT22;15917;50.014;8.352;2022-07-19T08:45:08;28.80;63.60
28761;DHT22;15917;50.014;8.352;2022-07-19T08:47:36;28.90;63.80
28761;DHT22;15917;50.014;8.352;2022-07-19T08:50:06;29.10;63.40
28761;DHT22;15917;50.014;8.352;2022-07-19T08:52:32;29.20;62.20
28761;DHT22;15917;50.014;8.352;2022-07-19T08:54:58;29.30;63.00
28761;DHT22;15917;50.014;8.352;2022-07-19T08:57:24;29.40;62.80
28761;DHT22;15917;50.014;8.352;2022-07-19T09:00:10;29.50;61.40
28761;DHT22;15917;50.014;8.352;2022-07-19T09:02:36;29.60;61.30
28761;DHT22;15917;50.014;8.352;2022-07-19T09:07:34;29.80;60.30
28761;DHT22;15917;50.014;8.352;2022-07-19T09:10:21;29.90;59.40
28761;DHT22;15917;50.014;8.352;2022-07-19T09:13:01;30.00;58.80
28761;DHT22;15917;50.014;8.352;2022-07-19T09:18:14;30.30;58.90
28761;DHT22;15917;50.014;8.352;2022-07-19T09:20:40;30.30;58.50
28761;DHT22;15917;50.014;8.352;2022-07-19T09:23:06;30.30;58.10
28761;DHT22;15917;50.014;8.352;2022-07-19T09:25:34;30.30;58.70
28761;DHT22;15917;50.014;8.352;2022-07-19T09:28:00;30.40;58.50
28761;DHT22;15917;50.014;8.352;2022-07-19T09:33:12;30.60;57.80
28761;DHT22;15917;50.014;8.352;2022-07-19T09:35:44;30.70;59.10
28761;DHT22;15917;50.014;8.352;2022-07-19T09:38:31;30.80;58.50
28761;DHT22;15917;50.014;8.352;2022-07-19T09:43:58;31.10;56.30
28761;DHT22;15917;50.014;8.352;2022-07-19T09:49:17;31.30;56.00
28761;DHT22;15917;50.014;8.352;2022-07-19T09:51:53;31.40;55.90
28761;DHT22;15917;50.014;8.352;2022-07-19T09:54:25;31.50;55.50
28761;DHT22;15917;50.014;8.352;2022-07-19T09:56:52;31.60;55.90
28761;DHT22;15917;50.014;8.352;2022-07-19T09:59:19;31.60;55.50
28761;DHT22;15917;50.014;8.352;2022-07-19T10:01:50;31.70;55.10
28761;DHT22;15917;50.014;8.352;2022-07-19T10:04:18;31.70;55.20
28761;DHT22;15917;50.014;8.352;2022-07-19T10:06:46;31.80;55.50
28761;DHT22;15917;50.014;8.352;2022-07-19T10:09:16;31.90;55.60
28761;DHT22;15917;50.014;8.352;2022-07-19T10:11:42;32.00;55.30
28761;DHT22;15917;50.014;8.352;2022-07-19T10:14:08;32.10;55.60
28761;DHT22;15917;50.014;8.352;2022-07-19T10:19:38;32.30;55.50
28761;DHT22;15917;50.014;8.352;2022-07-19T10:22:06;32.40;54.00
28761;DHT22;15917;50.014;8.352;2022-07-19T10:24:56;32.50;54.10
28761;DHT22;15917;50.014;8.352;2022-07-19T10:32:38;32.90;52.50
28761;DHT22;15917;50.014;8.352;2022-07-19T10:37:46;33.10;52.50
28761;DHT22;15917;50.014;8.352;2022-07-19T10:40:12;33.10;52.00
28761;DHT22;15917;50.014;8.352;2022-07-19T10:43:19;33.10;51.80
28761;DHT22;15917;50.014;8.352;2022-07-19T10:48:39;33.40;52.00
28761;DHT22;15917;50.014;8.352;2022-07-19T10:51:06;33.60;51.10
28761;DHT22;15917;50.014;8.352;2022-07-19T10:56:17;33.70;50.90
28761;DHT22;15917;50.014;8.352;2022-07-19T10:58:55;33.80;51.00
28761;DHT22;15917;50.014;8.352;2022-07-19T11:01:21;33.90;50.60
28761;DHT22;15917;50.014;8.352;2022-07-19T11:03:49;33.90;50.60
28761;DHT22;15917;50.014;8.352;2022-07-19T11:06:24;33.90;50.80
28761;DHT22;15917;50.014;8.352;2022-07-19T11:08:58;33.90;51.10
28761;DHT22;15917;50.014;8.352;2022-07-19T11:11:25;33.90;50.90
28761;DHT22;15917;50.014;8.352;2022-07-19T11:13:53;34.00;51.10
28761;DHT22;15917;50.014;8.352;2022-07-19T11:16:20;34.10;51.10
28761;DHT22;15917;50.014;8.352;2022-07-19T11:18:46;34.20;51.20
28761;DHT22;15917;50.014;8.352;2022-07-19T11:21:14;34.30;50.80
28761;DHT22;15917;50.014;8.352;2022-07-19T11:23:41;34.40;50.70
28761;DHT22;15917;50.014;8.352;2022-07-19T11:26:17;34.40;50.50
28761;DHT22;15917;50.014;8.352;2022-07-19T11:28:45;34.40;50.60
28761;DHT22;15917;50.014;8.352;2022-07-19T11:31:18;34.50;51.50
28761;DHT22;15917;50.014;8.352;2022-07-19T11:33:47;34.50;50.80
28761;DHT22;15917;50.014;8.352;2022-07-19T11:36:14;34.60;50.70
28761;DHT22;15917;50.014;8.352;2022-07-19T11:38:45;34.60;50.50
28761;DHT22;15917;50.014;8.352;2022-07-19T11:41:21;34.70;50.50
28761;DHT22;15917;50.014;8.352;2022-07-19T11:43:59;34.70;50.60
28761;DHT22;15917;50.014;8.352;2022-07-19T11:46:30;34.80;50.60
28761;DHT22;15917;50.014;8.352;2022-07-19T11:48:57;34.90;49.90
28761;DHT22;15917;50.014;8.352;2022-07-19T11:51:24;34.90;49.90
28761;DHT22;15917;50.014;8.352;2022-07-19T11:53:52;35.00;49.80
28761;DHT22;15917;50.014;8.352;2022-07-19T11:56:22;35.10;49.80
28761;DHT22;15917;50.014;8.352;2022-07-19T11:58:49;35.20;49.80
28761;DHT22;15917;50.014;8.352;2022-07-19T12:01:26;35.20;49.60
28761;DHT22;15917;50.014;8.352;2022-07-19T12:04:01;35.20;49.40
28761;DHT22;15917;50.014;8.352;2022-07-19T12:06:36;35.30;48.50
28761;DHT22;15917;50.014;8.352;2022-07-19T12:09:04;35.30;47.90
28761;DHT22;15917;50.014;8.352;2022-07-19T12:11:38;35.40;49.00
28761;DHT22;15917;50.014;8.352;2022-07-19T12:14:19;35.40;48.30
28761;DHT22;15917;50.014;8.352;2022-07-19T12:16:47;35.50;49.20
28761;DHT22;15917;50.014;8.352;2022-07-19T12:19:13;35.70;49.00
28761;DHT22;15917;50.014;8.352;2022-07-19T12:21:41;35.90;48.00
28761;DHT22;15917;50.014;8.352;2022-07-19T12:27:07;36.30;47.90
28761;DHT22;15917;50.014;8.352;2022-07-19T12:32:14;36.60;47.50
28761;DHT22;15917;50.014;8.352;2022-07-19T12:34:48;36.60;47.20
28761;DHT22;15917;50.014;8.352;2022-07-19T12:37:35;36.60;47.80
28761;DHT22;15917;50.014;8.352;2022-07-19T12:40:05;36.70;47.60
28761;DHT22;15917;50.014;8.352;2022-07-19T12:45:09;36.90;46.30
28761;DHT22;15917;50.014;8.352;2022-07-19T12:47:35;36.80;46.50
28761;DHT22;15917;50.014;8.352;2022-07-19T12:50:01;36.90;47.50
28761;DHT22;15917;50.014;8.352;2022-07-19T12:52:28;37.00;47.20
28761;DHT22;15917;50.014;8.352;2022-07-19T12:54:54;37.10;47.20
28761;DHT22;15917;50.014;8.352;2022-07-19T12:57:19;37.10;45.80
28761;DHT22;15917;50.014;8.352;2022-07-19T12:59:45;37.10;45.40
28761;DHT22;15917;50.014;8.352;2022-07-19T13:02:14;37.00;45.80
28761;DHT22;15917;50.014;8.352;2022-07-19T13:04:41;36.90;45.70
28761;DHT22;15917;50.014;8.352;2022-07-19T13:07:08;37.00;46.00
28761;DHT22;15917;50.014;8.352;2022-07-19T13:09:35;37.10;45.90
28761;DHT22;15917;50.014;8.352;2022-07-19T13:12:05;37.20;45.90
28761;DHT22;15917;50.014;8.352;2022-07-19T13:14:33;37.40;45.60
28761;DHT22;15917;50.014;8.352;2022-07-19T13:16:58;37.40;45.00
28761;DHT22;15917;50.014;8.352;2022-07-19T13:19:24;37.40;45.20
28761;DHT22;15917;50.014;8.352;2022-07-19T13:21:52;37.40;45.80
28761;DHT22;15917;50.014;8.352;2022-07-19T13:24:18;37.50;45.50
28761;DHT22;15917;50.014;8.352;2022-07-19T13:26:44;37.50;45.80
28761;DHT22;15917;50.014;8.352;2022-07-19T13:29:10;37.60;45.80
28761;DHT22;15917;50.014;8.352;2022-07-19T13:31:37;37.70;46.70
28761;DHT22;15917;50.014;8.352;2022-07-19T13:34:03;37.80;44.30
28761;DHT22;15917;50.014;8.352;2022-07-19T13:36:29;37.80;43.80
28761;DHT22;15917;50.014;8.352;2022-07-19T13:38:55;37.90;43.30
28761;DHT22;15917;50.014;8.352;2022-07-19T13:41:21;37.80;43.80
28761;DHT22;15917;50.014;8.352;2022-07-19T13:43:46;37.90;43.40
28761;DHT22;15917;50.014;8.352;2022-07-19T13:46:13;37.90;43.50
28761;DHT22;15917;50.014;8.352;2022-07-19T13:48:41;38.10;43.60
28761;DHT22;15917;50.014;8.352;2022-07-19T13:51:07;38.10;43.40
28761;DHT22;15917;50.014;8.352;2022-07-19T13:53:35;38.30;43.80
28761;DHT22;15917;50.014;8.352;2022-07-19T13:56:01;38.40;43.80
28761;DHT22;15917;50.014;8.352;2022-07-19T13:58:26;38.50;42.90
28761;DHT22;15917;50.014;8.352;2022-07-19T14:00:52;38.60;43.90
28761;DHT22;15917;50.014;8.352;2022-07-19T14:03:18;38.70;43.50
28761;DHT22;15917;50.014;8.352;2022-07-19T14:05:44;38.70;42.80
28761;DHT22;15917;50.014;8.352;2022-07-19T14:08:10;38.60;43.70
28761;DHT22;15917;50.014;8.352;2022-07-19T14:10:37;38.70;42.00
28761;DHT22;15917;50.014;8.352;2022-07-19T14:13:03;38.60;42.70
28761;DHT22;15917;50.014;8.352;2022-07-19T14:15:29;38.60;42.70
28761;DHT22;15917;50.014;8.352;2022-07-19T14:17:55;38.50;41.60
28761;DHT22;15917;50.014;8.352;2022-07-19T14:20:22;38.50;42.10
28761;DHT22;15917;50.014;8.352;2022-07-19T14:22:48;38.50;42.10
28761;DHT22;15917;50.014;8.352;2022-07-19T14:25:14;38.50;42.00
28761;DHT22;15917;50.014;8.352;2022-07-19T14:27:39;38.40;41.90
28761;DHT22;15917;50.014;8.352;2022-07-19T14:30:05;38.40;42.10
28761;DHT22;15917;50.014;8.352;2022-07-19T14:32:31;38.40;42.70
28761;DHT22;15917;50.014;8.352;2022-07-19T14:34:57;38.40;42.30
28761;DHT22;15917;50.014;8.352;2022-07-19T14:37:23;38.50;41.80
28761;DHT22;15917;50.014;8.352;2022-07-19T14:39:48;38.60;41.50
28761;DHT22;15917;50.014;8.352;2022-07-19T14:42:14;38.70;41.80
28761;DHT22;15917;50.014;8.352;2022-07-19T14:44:41;38.70;41.80
28761;DHT22;15917;50.014;8.352;2022-07-19T14:47:07;38.80;41.80
28761;DHT22;15917;50.014;8.352;2022-07-19T14:49:34;38.80;41.90
28761;DHT22;15917;50.014;8.352;2022-07-19T14:52:00;38.80;41.50
28761;DHT22;15917;50.014;8.352;2022-07-19T14:54:26;38.90;41.60
28761;DHT22;15917;50.014;8.352;2022-07-19T14:56:52;38.90;41.90
28761;DHT22;15917;50.014;8.352;2022-07-19T14:59:19;39.00;41.10
28761;DHT22;15917;50.014;8.352;2022-07-19T15:01:45;38.90;41.30
28761;DHT22;15917;50.014;8.352;2022-07-19T15:04:11;38.90;40.70
28761;DHT22;15917;50.014;8.352;2022-07-19T15:06:37;38.80;41.00
28761;DHT22;15917;50.014;8.352;2022-07-19T15:09:03;38.80;40.60
28761;DHT22;15917;50.014;8.352;2022-07-19T15:11:28;38.80;40.80
28761;DHT22;15917;50.014;8.352;2022-07-19T15:13:58;38.80;41.00
28761;DHT22;15917;50.014;8.352;2022-07-19T15:16:24;38.90;40.60
28761;DHT22;15917;50.014;8.352;2022-07-19T15:18:50;39.00;40.20
28761;DHT22;15917;50.014;8.352;2022-07-19T15:21:16;39.00;40.70
28761;DHT22;15917;50.014;8.352;2022-07-19T15:23:42;39.10;40.70
28761;DHT22;15917;50.014;8.352;2022-07-19T15:26:08;39.00;40.50
28761;DHT22;15917;50.014;8.352;2022-07-19T15:28:35;38.90;40.50
28761;DHT22;15917;50.014;8.352;2022-07-19T15:31:02;38.90;40.50
28761;DHT22;15917;50.014;8.352;2022-07-19T15:33:49;38.80;40.90
28761;DHT22;15917;50.014;8.352;2022-07-19T15:36:18;38.80;40.50
28761;DHT22;15917;50.014;8.352;2022-07-19T15:38:44;38.60;40.50
28761;DHT22;15917;50.014;8.352;2022-07-19T15:41:13;38.60;41.20
28761;DHT22;15917;50.014;8.352;2022-07-19T15:43:39;38.50;41.20
28761;DHT22;15917;50.014;8.352;2022-07-19T15:46:05;38.50;41.10
28761;DHT22;15917;50.014;8.352;2022-07-19T15:48:31;38.60;41.50
28761;DHT22;15917;50.014;8.352;2022-07-19T15:51:03;38.60;41.00
28761;DHT22;15917;50.014;8.352;2022-07-19T15:53:32;38.70;41.20
28761;DHT22;15917;50.014;8.352;2022-07-19T15:55:58;38.80;41.00
28761;DHT22;15917;50.014;8.352;2022-07-19T15:58:50;38.80;40.90
28761;DHT22;15917;50.014;8.352;2022-07-19T16:01:19;38.80;40.70
28761;DHT22;15917;50.014;8.352;2022-07-19T16:03:48;38.70;40.90
28761;DHT22;15917;50.014;8.352;2022-07-19T16:06:42;38.70;41.20
28761;DHT22;15917;50.014;8.352;2022-07-19T16:09:14;38.60;41.40